createdAt,value
2019-01-13T00:00:52.975Z,99.90
2019-01-13T00:03:30.136Z,99.90
2019-01-13T00:06:03.634Z,99.90
2019-01-13T00:08:37.417Z,99.90
2019-01-13T00:11:10.943Z,99.90
2019-01-13T00:13:46.735Z,99.90
2019-01-13T00:16:20.367Z,99.90
2019-01-13T00:18:54.187Z,99.90
2019-01-13T00:21:27.835Z,99.90
2019-01-13T00:24:03.074Z,99.90
2019-01-13T00:26:36.582Z,99.90
2019-01-13T00:29:10.222Z,99.90
2019-01-13T00:31:43.951Z,99.90
2019-01-13T00:34:17.821Z,99.90
2019-01-13T00:36:51.676Z,99.90
2019-01-13T00:39:27.187Z,99.90
2019-01-13T00:42:01.176Z,99.90
2019-01-13T00:44:35.019Z,99.90
2019-01-13T00:47:08.467Z,99.90
2019-01-13T00:49:43.368Z,99.90
2019-01-13T00:52:17.632Z,99.90
2019-01-13T00:54:51.187Z,99.90
2019-01-13T00:57:25.012Z,99.90
2019-01-13T01:00:00.260Z,99.90
2019-01-13T01:02:34.375Z,99.90
2019-01-13T01:05:08.803Z,99.90
2019-01-13T01:07:42.595Z,99.90
2019-01-13T01:10:18.840Z,99.90
2019-01-13T01:12:52.484Z,99.90
2019-01-13T01:15:26.404Z,99.90
2019-01-13T01:17:59.992Z,99.90
2019-01-13T01:20:33.689Z,99.90
2019-01-13T01:23:07.745Z,99.90
2019-01-13T01:25:41.581Z,99.90
2019-01-13T01:28:15.754Z,99.60
2019-01-13T01:30:49.793Z,98.10
2019-01-13T01:33:26.043Z,96.50
2019-01-13T01:35:58.877Z,95.90
2019-01-13T01:38:38.476Z,95.60
2019-01-13T01:41:12.246Z,95.70
2019-01-13T01:43:45.903Z,96.20
2019-01-13T01:46:19.555Z,96.60
2019-01-13T01:48:53.199Z,96.80
2019-01-13T01:51:30.074Z,96.30
2019-01-13T01:54:03.806Z,96.30
2019-01-13T01:56:37.926Z,96.60
2019-01-13T01:59:12.001Z,97.60
2019-01-13T02:01:45.840Z,99.10
2019-01-13T02:04:19.791Z,99.90
2019-01-13T02:06:53.889Z,99.90
2019-01-13T02:09:27.777Z,99.90
2019-01-13T02:12:02.100Z,99.90
2019-01-13T02:14:35.913Z,99.90
2019-01-13T02:17:09.901Z,99.90
2019-01-13T02:19:44.041Z,99.90
2019-01-13T02:22:18.044Z,99.90
2019-01-13T02:24:51.525Z,99.90
2019-01-13T02:27:26.576Z,99.90
2019-01-13T02:30:00.641Z,99.90
2019-01-13T02:32:34.783Z,99.90
2019-01-13T02:35:09.041Z,99.90
2019-01-13T02:37:43.363Z,99.90
2019-01-13T02:40:18.925Z,99.90
2019-01-13T02:42:52.557Z,99.90
2019-01-13T02:45:28.994Z,99.90
2019-01-13T02:48:02.718Z,99.90
2019-01-13T02:50:36.360Z,99.90
2019-01-13T02:53:10.399Z,99.90
2019-01-13T02:55:44.091Z,99.90
2019-01-13T02:58:19.343Z,99.90
2019-01-13T03:00:57.257Z,99.90
2019-01-13T03:03:28.214Z,99.90
2019-01-13T03:06:02.084Z,99.90
2019-01-13T03:08:36.076Z,99.90
2019-01-13T03:11:09.792Z,99.90
2019-01-13T03:13:44.475Z,99.90
2019-01-13T03:16:18.134Z,99.90
2019-01-13T03:18:53.564Z,99.90
2019-01-13T03:21:27.089Z,99.90
2019-01-13T03:24:02.396Z,99.90
2019-01-13T03:26:36.062Z,99.90
2019-01-13T03:29:09.831Z,99.90
2019-01-13T03:31:43.898Z,99.90
2019-01-13T03:34:19.278Z,99.90
2019-01-13T03:36:52.930Z,99.90
2019-01-13T03:39:28.075Z,99.90
2019-01-13T03:42:01.709Z,99.90
2019-01-13T03:44:35.487Z,99.90
2019-01-13T03:47:09.338Z,99.90
2019-01-13T03:49:44.664Z,99.90
2019-01-13T03:52:18.815Z,99.90
2019-01-13T03:54:52.818Z,99.90
2019-01-13T03:57:26.865Z,99.90
2019-01-13T04:00:00.706Z,99.90
2019-01-13T04:02:35.099Z,99.90
2019-01-13T04:05:09.130Z,99.90
2019-01-13T04:07:42.889Z,99.90
2019-01-13T04:10:19.314Z,99.90
2019-01-13T04:12:53.179Z,99.90
2019-01-13T04:15:44.363Z,99.90
2019-01-13T04:18:18.518Z,99.90
2019-01-13T04:20:53.866Z,99.90
2019-01-13T04:23:27.843Z,99.90
2019-01-13T04:26:01.724Z,99.90
2019-01-13T04:28:35.236Z,99.90
2019-01-13T04:31:09.484Z,99.90
2019-01-13T04:33:43.612Z,99.90
2019-01-13T04:36:19.002Z,99.90
2019-01-13T04:38:52.811Z,99.90
2019-01-13T04:41:27.827Z,99.90
2019-01-13T04:44:01.776Z,99.90
2019-01-13T04:46:35.670Z,99.90
2019-01-13T04:49:09.128Z,99.90
2019-01-13T04:51:43.067Z,99.90
2019-01-13T04:54:16.870Z,99.90
2019-01-13T04:56:50.704Z,99.90
2019-01-13T04:59:24.547Z,99.90
2019-01-13T05:01:58.469Z,99.90
2019-01-13T05:04:32.352Z,99.90
2019-01-13T05:07:06.224Z,99.90
2019-01-13T05:09:40.146Z,99.90
2019-01-13T05:12:13.975Z,99.90
2019-01-13T05:14:47.587Z,99.90
2019-01-13T05:17:21.460Z,99.90
2019-01-13T05:19:55.189Z,99.90
2019-01-13T05:22:30.628Z,99.90
2019-01-13T05:25:04.356Z,99.90
2019-01-13T05:27:38.453Z,99.90
2019-01-13T05:30:17.596Z,99.90
2019-01-13T05:32:51.425Z,99.90
2019-01-13T05:35:25.679Z,99.90
2019-01-13T05:38:00.035Z,99.90
2019-01-13T05:40:34.059Z,99.90
2019-01-13T05:43:07.805Z,99.90
2019-01-13T05:45:41.748Z,99.90
2019-01-13T05:48:15.615Z,99.90
2019-01-13T05:50:49.279Z,99.90
2019-01-13T05:53:23.185Z,99.90
2019-01-13T05:55:56.929Z,99.90
2019-01-13T05:58:30.952Z,99.90
2019-01-13T06:01:04.593Z,99.90
2019-01-13T06:03:38.572Z,99.90
2019-01-13T06:06:12.742Z,99.90
2019-01-13T06:08:46.814Z,99.90
2019-01-13T06:11:20.586Z,99.90
2019-01-13T06:13:54.537Z,99.90
2019-01-13T06:16:28.645Z,99.90
2019-01-13T06:19:02.320Z,99.90
2019-01-13T06:21:36.595Z,99.90
2019-01-13T06:24:10.458Z,99.90
2019-01-13T06:26:44.271Z,99.90
2019-01-13T06:29:19.153Z,99.90
2019-01-13T06:31:56.253Z,99.90
2019-01-13T06:34:27.810Z,99.90
2019-01-13T06:37:01.219Z,99.90
2019-01-13T06:39:36.550Z,99.90
2019-01-13T06:42:10.396Z,99.90
2019-01-13T06:44:44.283Z,99.90
2019-01-13T06:47:18.123Z,99.90
2019-01-13T06:49:51.906Z,99.90
2019-01-13T06:52:25.499Z,99.90
2019-01-13T06:54:59.233Z,99.90
2019-01-13T06:57:33.392Z,99.90
2019-01-13T07:00:09.407Z,99.90
2019-01-13T07:02:43.648Z,99.90
2019-01-13T07:05:18.572Z,99.90
2019-01-13T07:07:52.142Z,99.90
2019-01-13T07:10:25.893Z,99.90
2019-01-13T07:12:59.454Z,99.90
2019-01-13T07:15:33.466Z,99.90
2019-01-13T07:18:07.050Z,99.90
2019-01-13T07:20:40.797Z,99.90
2019-01-13T07:23:14.467Z,99.90
2019-01-13T07:25:50.035Z,99.90
2019-01-13T07:28:24.062Z,99.90
2019-01-13T07:30:58.498Z,99.90
2019-01-13T07:33:32.040Z,99.90
2019-01-13T07:36:05.960Z,99.90
2019-01-13T07:38:39.866Z,99.90
2019-01-13T07:41:13.974Z,99.90
2019-01-13T07:43:48.130Z,99.90
2019-01-13T07:46:23.383Z,99.90
2019-01-13T07:48:57.279Z,99.90
2019-01-13T07:51:32.531Z,99.90
2019-01-13T07:54:06.326Z,99.90
2019-01-13T07:56:40.628Z,99.90
2019-01-13T07:59:14.295Z,99.90
2019-01-13T08:01:48.127Z,99.90
2019-01-13T08:04:22.192Z,99.90
2019-01-13T08:06:56.072Z,99.90
2019-01-13T08:09:29.630Z,99.90
2019-01-13T08:12:05.214Z,99.90
2019-01-13T08:14:38.803Z,99.90
2019-01-13T08:17:12.834Z,99.90
2019-01-13T08:19:46.642Z,99.90
2019-01-13T08:22:20.402Z,99.90
2019-01-13T08:24:53.989Z,99.90
2019-01-13T08:27:28.024Z,99.90
2019-01-13T08:30:01.985Z,99.90
2019-01-13T08:32:35.501Z,99.90
2019-01-13T08:35:09.134Z,99.90
2019-01-13T08:37:42.974Z,99.90
2019-01-13T08:40:18.637Z,99.90
2019-01-13T08:42:52.457Z,99.90
2019-01-13T08:45:26.082Z,99.90
2019-01-13T08:48:00.175Z,99.90
2019-01-13T08:50:34.112Z,99.90
2019-01-13T08:53:07.818Z,99.90
2019-01-13T08:55:41.358Z,99.90
2019-01-13T08:58:15.473Z,99.90
2019-01-13T09:00:49.052Z,99.90
2019-01-13T09:03:24.480Z,99.90
2019-01-13T09:05:58.577Z,99.90
2019-01-13T09:08:34.093Z,99.90
2019-01-13T09:11:08.244Z,99.90
2019-01-13T09:13:41.885Z,99.90
2019-01-13T09:16:15.838Z,99.90
2019-01-13T09:18:49.699Z,99.90
2019-01-13T09:21:23.664Z,99.90
2019-01-13T09:23:57.286Z,99.90
2019-01-13T09:26:31.177Z,99.90
2019-01-13T09:29:05.244Z,99.90
2019-01-13T09:31:39.420Z,99.90
2019-01-13T09:34:13.293Z,99.90
2019-01-13T09:36:48.456Z,99.90
2019-01-13T09:39:23.799Z,99.90
2019-01-13T09:41:57.801Z,99.90
2019-01-13T09:44:32.599Z,99.90
2019-01-13T09:47:06.768Z,99.90
2019-01-13T09:49:40.825Z,99.90
2019-01-13T09:52:14.613Z,99.90
2019-01-13T09:54:48.224Z,99.90
2019-01-13T09:57:21.855Z,99.90
2019-01-13T09:59:55.619Z,99.90
2019-01-13T10:02:29.395Z,99.90
2019-01-13T10:05:03.203Z,99.90
2019-01-13T10:07:37.033Z,99.90
2019-01-13T10:10:11.759Z,99.90
2019-01-13T10:12:45.390Z,99.90
2019-01-13T10:15:21.454Z,99.90
2019-01-13T10:17:55.168Z,99.90
2019-01-13T10:20:30.368Z,99.90
2019-01-13T10:23:04.230Z,99.90
2019-01-13T10:25:37.900Z,99.90
2019-01-13T10:28:12.150Z,99.90
2019-01-13T10:30:46.242Z,99.90
2019-01-13T10:33:20.072Z,99.90
2019-01-13T10:35:53.634Z,99.90
2019-01-13T10:38:27.331Z,99.90
2019-01-13T10:41:01.495Z,99.90
2019-01-13T10:43:35.076Z,99.90
2019-01-13T10:46:09.398Z,99.90
2019-01-13T10:48:42.879Z,99.90
2019-01-13T10:51:16.766Z,99.90
2019-01-13T10:53:50.544Z,99.90
2019-01-13T10:56:24.339Z,99.90
2019-01-13T10:58:58.345Z,99.90
2019-01-13T11:01:32.055Z,99.90
2019-01-13T11:04:05.737Z,99.90
2019-01-13T11:06:40.219Z,99.90
2019-01-13T11:09:17.872Z,99.90
2019-01-13T11:11:52.983Z,99.90
2019-01-13T11:14:26.605Z,99.90
2019-01-13T11:17:01.261Z,99.90
2019-01-13T11:19:35.283Z,99.90
2019-01-13T11:22:09.127Z,99.90
2019-01-13T11:24:42.923Z,99.90
2019-01-13T11:27:17.083Z,99.90
2019-01-13T11:29:51.084Z,99.90
2019-01-13T11:32:27.635Z,99.90
2019-01-13T11:35:01.400Z,99.90
2019-01-13T11:37:36.435Z,99.90
2019-01-13T11:40:11.953Z,99.90
2019-01-13T11:42:45.641Z,99.90
2019-01-13T11:45:19.384Z,99.90
2019-01-13T11:47:53.109Z,99.90
2019-01-13T11:50:27.632Z,99.90
2019-01-13T11:53:01.698Z,99.90
2019-01-13T11:55:35.428Z,99.90
2019-01-13T11:58:09.534Z,99.90
2019-01-13T12:00:50.595Z,99.90
2019-01-13T12:03:24.763Z,99.90
2019-01-13T12:05:58.692Z,99.90
2019-01-13T12:08:34.243Z,99.90
2019-01-13T12:11:08.088Z,99.90
2019-01-13T12:13:41.938Z,99.90
2019-01-13T12:16:15.899Z,99.90
2019-01-13T12:18:50.011Z,99.90
2019-01-13T12:21:23.786Z,99.90
2019-01-13T12:23:57.830Z,99.90
2019-01-13T12:26:31.840Z,99.90
2019-01-13T12:29:07.048Z,99.90
2019-01-13T12:31:41.110Z,99.90
2019-01-13T12:34:16.674Z,99.90
2019-01-13T12:36:50.339Z,99.90
2019-01-13T12:39:25.656Z,99.90
2019-01-13T12:41:59.674Z,99.90
2019-01-13T12:44:33.669Z,99.90
2019-01-13T12:47:07.538Z,99.90
2019-01-13T12:49:43.103Z,99.90
2019-01-13T12:52:16.766Z,99.90
2019-01-13T12:54:51.617Z,99.90
2019-01-13T12:57:26.036Z,99.90
2019-01-13T13:00:00.954Z,99.90
2019-01-13T13:02:36.364Z,99.90
2019-01-13T13:05:11.438Z,99.90
2019-01-13T13:07:46.896Z,99.90
2019-01-13T13:10:30.218Z,99.90
2019-01-13T13:13:06.288Z,99.90
2019-01-13T13:15:42.575Z,99.90
2019-01-13T13:18:18.405Z,99.90
2019-01-13T13:20:55.110Z,99.90
2019-01-13T13:23:31.834Z,99.90
2019-01-13T13:26:13.989Z,99.90
2019-01-13T13:28:50.920Z,99.90
2019-01-13T13:31:27.133Z,99.90
2019-01-13T13:34:03.704Z,99.90
2019-01-13T13:36:41.058Z,99.90
2019-01-13T13:39:17.235Z,99.90
2019-01-13T13:41:54.443Z,99.90
2019-01-13T13:44:31.065Z,99.90
2019-01-13T13:47:09.951Z,99.90
2019-01-13T13:49:46.354Z,99.90
2019-01-13T13:52:22.100Z,99.90
2019-01-13T13:54:56.836Z,99.90
2019-01-13T13:57:33.012Z,99.90
2019-01-13T14:00:08.256Z,99.90
2019-01-13T14:02:42.495Z,99.90
2019-01-13T14:05:17.059Z,99.90
2019-01-13T14:07:53.859Z,99.90
2019-01-13T14:10:54.610Z,99.90
2019-01-13T14:13:29.552Z,99.90
2019-01-13T14:16:04.657Z,99.90
2019-01-13T14:18:38.647Z,99.90
2019-01-13T14:21:13.010Z,99.90
2019-01-13T14:23:47.403Z,99.90
2019-01-13T14:26:21.622Z,99.90
2019-01-13T14:28:55.544Z,99.90
2019-01-13T14:31:30.405Z,99.90
2019-01-13T14:34:06.462Z,99.60
2019-01-13T14:36:40.846Z,99.50
2019-01-13T14:39:17.092Z,99.70
2019-01-13T14:41:51.426Z,99.50
2019-01-13T14:44:27.486Z,99.00
2019-01-13T14:47:01.874Z,99.10
2019-01-13T14:49:37.386Z,98.90
2019-01-13T15:02:18.576Z,96.30
2019-01-13T15:04:52.566Z,96.30
2019-01-13T15:07:26.771Z,96.40
2019-01-13T15:10:00.797Z,96.50
2019-01-13T15:12:46.602Z,96.00
2019-01-13T15:15:19.446Z,95.90
2019-01-13T15:17:53.171Z,96.50
2019-01-13T15:20:27.503Z,96.50
2019-01-13T15:23:01.271Z,95.70
2019-01-13T15:25:35.519Z,95.00
2019-01-13T15:28:09.268Z,95.00
2019-01-13T15:30:45.203Z,94.60
2019-01-13T15:33:18.907Z,94.20
2019-01-13T15:35:52.919Z,94.60
2019-01-13T15:38:26.911Z,93.90
2019-01-13T15:41:00.378Z,93.80
2019-01-13T15:43:34.421Z,94.20
2019-01-13T15:46:10.352Z,94.60
2019-01-13T15:48:44.236Z,94.90
2019-01-13T15:51:19.919Z,94.90
2019-01-13T15:53:55.682Z,95.20
2019-01-13T15:56:29.963Z,95.50
2019-01-13T15:59:03.387Z,95.40
2019-01-13T16:01:38.532Z,95.00
2019-01-13T16:04:14.763Z,94.50
2019-01-13T16:06:48.278Z,94.40
2019-01-13T16:09:21.944Z,94.20
2019-01-13T16:11:58.308Z,94.20
2019-01-13T16:14:32.593Z,93.10
2019-01-13T16:17:06.799Z,93.50
2019-01-13T16:19:40.398Z,93.80
2019-01-13T16:22:13.914Z,93.00
2019-01-13T16:24:55.921Z,93.00
2019-01-13T16:27:31.154Z,92.50
2019-01-13T16:30:04.988Z,92.90
2019-01-13T16:32:42.961Z,92.70
2019-01-13T16:35:16.879Z,93.30
2019-01-13T16:37:50.500Z,93.50
2019-01-13T16:40:25.738Z,93.50
2019-01-13T16:42:59.720Z,93.00
2019-01-13T16:45:33.613Z,93.00
2019-01-13T16:48:07.216Z,92.70
2019-01-13T16:50:42.417Z,92.60
2019-01-13T16:53:17.552Z,92.30
2019-01-13T16:55:51.517Z,92.60
2019-01-13T16:58:29.453Z,93.30
2019-01-13T17:01:03.521Z,93.00
2019-01-13T17:03:37.004Z,93.20
2019-01-13T17:06:10.744Z,93.10
2019-01-13T17:08:47.152Z,93.10
2019-01-13T17:11:20.978Z,92.90
2019-01-13T17:13:57.270Z,92.60
2019-01-13T17:16:31.352Z,92.20
2019-01-13T17:19:04.952Z,92.90
2019-01-13T17:21:39.088Z,93.60
2019-01-13T17:24:13.957Z,94.10
2019-01-13T17:26:48.049Z,94.00
2019-01-13T17:29:23.970Z,93.80
2019-01-13T17:31:57.999Z,93.60
2019-01-13T17:34:35.993Z,93.70
2019-01-13T17:37:08.671Z,94.00
2019-01-13T17:39:43.963Z,93.40
2019-01-13T17:42:17.609Z,93.00
2019-01-13T17:44:51.413Z,92.50
2019-01-13T17:47:25.138Z,92.10
2019-01-13T17:50:00.817Z,92.00
2019-01-13T17:52:34.726Z,92.20
2019-01-13T17:55:13.082Z,91.50
2019-01-13T17:57:46.810Z,91.60
2019-01-13T18:00:35.762Z,91.40
2019-01-13T18:03:10.464Z,90.70
2019-01-13T18:05:45.886Z,90.50
2019-01-13T18:08:19.832Z,90.10
2019-01-13T18:10:53.546Z,90.10
2019-01-13T18:13:27.489Z,90.50
2019-01-13T18:16:02.827Z,90.60
2019-01-13T18:18:36.553Z,90.80
2019-01-13T18:21:10.318Z,91.10
2019-01-13T18:23:43.944Z,91.30
2019-01-13T18:26:19.957Z,91.40
2019-01-13T18:28:53.564Z,91.30
2019-01-13T18:31:27.453Z,90.80
2019-01-13T18:34:01.133Z,90.30
2019-01-13T18:36:34.887Z,90.50
2019-01-13T18:39:10.660Z,90.50
2019-01-13T18:41:44.780Z,90.70
2019-01-13T18:44:20.186Z,90.90
2019-01-13T18:46:53.851Z,90.40
2019-01-13T18:49:28.037Z,90.10
2019-01-13T18:52:01.798Z,90.20
2019-01-13T18:54:36.073Z,90.20
2019-01-13T18:57:13.227Z,90.90
2019-01-13T18:59:47.201Z,91.20
2019-01-13T19:02:23.039Z,91.20
2019-01-13T19:04:57.361Z,90.90
2019-01-13T19:07:32.616Z,91.40
2019-01-13T19:10:06.077Z,92.00
2019-01-13T19:12:40.162Z,92.50
2019-01-13T19:15:14.431Z,92.50
2019-01-13T19:17:54.231Z,92.50
2019-01-13T19:20:34.384Z,92.80
2019-01-13T19:23:14.614Z,92.60
2019-01-13T19:25:48.608Z,92.70
2019-01-13T19:28:24.231Z,93.10
2019-01-13T19:30:57.654Z,92.70
2019-01-13T19:33:33.474Z,92.70
2019-01-13T19:36:07.324Z,93.00
2019-01-13T19:38:42.401Z,92.40
2019-01-13T19:41:16.258Z,92.10
2019-01-13T19:43:52.010Z,91.40
2019-01-13T19:46:25.403Z,91.00
2019-01-13T19:49:00.605Z,91.00
2019-01-13T19:51:34.211Z,90.90
2019-01-13T19:54:10.476Z,90.80
2019-01-13T19:56:43.836Z,90.60
2019-01-13T19:59:20.482Z,90.20
2019-01-13T20:01:54.299Z,90.80
2019-01-13T20:04:29.915Z,90.80
2019-01-13T20:07:04.020Z,90.80
2019-01-13T20:09:37.679Z,91.00
2019-01-13T20:12:11.100Z,90.80
2019-01-13T20:14:47.961Z,90.90
2019-01-13T20:17:21.740Z,90.80
2019-01-13T20:19:55.359Z,90.80
2019-01-13T20:22:30.999Z,90.10
2019-01-13T20:25:04.873Z,90.00
2019-01-13T20:27:38.721Z,89.90
2019-01-13T20:30:16.655Z,89.50
2019-01-13T20:32:50.429Z,87.10
2019-01-13T20:35:25.340Z,86.80
2019-01-13T20:37:59.468Z,85.10
2019-01-13T20:40:33.204Z,86.00
2019-01-13T20:43:07.094Z,85.40
2019-01-13T20:45:46.884Z,84.90
2019-01-13T20:48:23.316Z,86.40
2019-01-13T20:51:09.868Z,86.70
2019-01-13T20:53:44.117Z,87.30
2019-01-13T20:56:18.243Z,87.40
2019-01-13T20:58:52.040Z,88.00
2019-01-13T21:01:27.827Z,88.60
2019-01-13T21:04:02.355Z,88.40
2019-01-13T21:06:37.368Z,88.90
2019-01-13T21:09:12.885Z,88.80
2019-01-13T21:11:46.781Z,88.70
2019-01-13T21:14:20.563Z,90.00
2019-01-13T21:16:54.187Z,90.00
2019-01-13T21:19:27.656Z,89.30
2019-01-13T21:22:03.642Z,89.10
2019-01-13T21:24:40.512Z,89.20
2019-01-13T21:27:14.191Z,89.60
2019-01-13T21:29:48.063Z,90.20
2019-01-13T21:32:22.195Z,90.60
2019-01-13T21:34:56.055Z,90.60
2019-01-13T21:37:31.168Z,90.50
2019-01-13T21:40:05.684Z,90.20
2019-01-13T21:42:39.715Z,90.10
2019-01-13T21:45:17.429Z,90.30
2019-01-13T21:47:53.305Z,90.70
2019-01-13T21:50:28.600Z,90.90
2019-01-13T21:53:02.152Z,90.60
2019-01-13T21:55:36.045Z,90.60
2019-01-13T21:58:11.244Z,90.60
2019-01-13T22:00:45.555Z,90.70
2019-01-13T22:03:19.534Z,91.10
2019-01-13T22:05:53.175Z,91.20
2019-01-13T22:08:28.257Z,91.10
2019-01-13T22:11:02.199Z,91.50
2019-01-13T22:13:37.516Z,91.80
2019-01-13T22:16:11.081Z,92.30
2019-01-13T22:18:46.183Z,92.70
2019-01-13T22:21:20.055Z,92.70
2019-01-13T22:23:54.279Z,92.70
2019-01-13T22:26:27.891Z,93.10
2019-01-13T22:29:01.662Z,93.30
2019-01-13T22:31:35.589Z,93.30
2019-01-13T22:34:09.501Z,92.90
2019-01-13T22:36:43.295Z,92.90
2019-01-13T22:39:18.600Z,92.70
2019-01-13T22:41:52.807Z,91.90
2019-01-13T22:44:27.005Z,91.60
2019-01-13T22:47:00.880Z,91.80
2019-01-13T22:49:34.502Z,91.50
2019-01-13T22:52:08.179Z,92.00
2019-01-13T22:54:42.063Z,92.90
2019-01-13T22:57:15.929Z,93.20
2019-01-13T22:59:49.674Z,92.90
2019-01-13T23:02:23.118Z,92.50
2019-01-13T23:04:57.070Z,92.30
2019-01-13T23:07:30.859Z,92.40
2019-01-13T23:10:05.225Z,92.60
2019-01-13T23:12:39.250Z,92.50
2019-01-13T23:15:13.256Z,93.50
2019-01-13T23:17:47.063Z,94.90
2019-01-13T23:20:20.951Z,95.40
2019-01-13T23:22:55.006Z,95.90
2019-01-13T23:25:28.555Z,96.40
2019-01-13T23:28:02.390Z,96.80
2019-01-13T23:30:35.971Z,97.20
2019-01-13T23:33:09.612Z,97.70
2019-01-13T23:35:44.996Z,98.10
2019-01-13T23:38:19.016Z,98.50
2019-01-13T23:40:53.062Z,98.70
2019-01-13T23:43:27.002Z,98.90
2019-01-13T23:46:02.570Z,99.10
2019-01-13T23:48:36.140Z,99.40
2019-01-13T23:51:10.012Z,99.80
2019-01-13T23:53:43.748Z,99.90
2019-01-13T23:56:19.390Z,99.90
2019-01-13T23:58:53.030Z,99.90
